KSEM/SEM METAR and TAF weather

Enter ICAO airport designator
Station Type Date Time Source
KSEM METAR 2021/06/22 22:55 UTC NOAA

KSEM 222255Z AUTO 31007KT 8SM FEW041 28/18 A2996 RMK AO2


Station Type Date Time Source
KSEM Decoded METAR 2021/06/22 22:55 UTC NOAA

Craig Field / Selma, AL, United States (KSEM) 32-21N 086-59W
Jun 22, 2021 - 06:55 PM EDT / 2021.06.22 2255 UTC
Wind: from the NW (310 degrees) at 8 MPH (7 KT):0
Visibility: 8 mile(s):0
Sky conditions: mostly clear
Temperature: 82 F (28 C)
Dew Point: 64 F (18 C)
Relative Humidity: 54%
Pressure (altimeter): 29.96 in. Hg (1014 hPa)
ob: KSEM 222255Z AUTO 31007KT 8SM FEW041 28/18 A2996 RMK AO2
cycle: 23

Station Type Date Time Source
KSEM TAF UTC NOAA

Error!

Example: see airport list